Time;durP1;ratioP1;P1;durP2;ratioP2;P2;SDS_P1;SDS_P2;PMS_P1;PMS_P2;Temp;Humidity;BMP_temperature;BMP_pressure;BME280_temperature;BME280_humidity;BME280_pressure;Samples;Min_cycle;Max_cycle;Signal;HPM_P1;HPM_P2
2021/10/22 00:09:41;;;;;;;1.02;0.68;;;7.50;99.90;;;;;;20417316;28;20063;-43
2021/10/22 00:19:42;;;;;;;1.17;0.38;;;7.40;99.90;;;;;;20420535;28;20062;-43
2021/10/22 00:29:43;;;;;;;1.25;0.40;;;7.40;99.90;;;;;;20432036;28;20052;-43
2021/10/22 00:39:45;;;;;;;1.65;0.30;;;7.60;99.90;;;;;;20421608;28;20043;-43
2021/10/22 00:49:46;;;;;;;2.60;0.30;;;7.70;99.90;;;;;;20398479;28;20062;-43
2021/10/22 00:59:47;;;;;;;3.72;0.25;;;7.70;99.90;;;;;;20420872;28;20546;-43
2021/10/22 01:09:48;;;;;;;3.55;1.17;;;7.70;99.90;;;;;;20431952;28;20056;-43
2021/10/22 01:19:49;;;;;;;4.05;0.25;;;7.70;99.90;;;;;;20427092;28;20046;-42
2021/10/22 01:29:50;;;;;;;1.10;0.35;;;7.80;99.90;;;;;;20435181;28;20047;-43
2021/10/22 01:39:52;;;;;;;1.83;0.45;;;7.80;99.90;;;;;;20426596;28;20043;-43
2021/10/22 01:49:53;;;;;;;6.80;0.65;;;7.80;99.90;;;;;;20433177;28;20494;-43
2021/10/22 01:59:54;;;;;;;7.50;0.50;;;7.80;99.90;;;;;;20431511;28;20414;-43
2021/10/22 02:09:56;;;;;;;1.65;0.20;;;7.70;99.90;;;;;;20423503;28;20058;-43
2021/10/22 02:19:57;;;;;;;5.07;0.30;;;7.70;99.90;;;;;;20422960;28;20032;-43
2021/10/22 02:29:58;;;;;;;3.35;0.95;;;7.70;99.90;;;;;;20421769;28;20059;-43
2021/10/22 02:39:59;;;;;;;1.73;0.38;;;7.70;99.90;;;;;;20432221;29;20032;-43
2021/10/22 02:50:00;;;;;;;0.15;0.05;;;7.80;99.90;;;;;;20428002;28;20050;-43
2021/10/22 03:00:05;;;;;;;4.43;0.57;;;7.80;99.90;;;;;;20409094;28;20043;-43
2021/10/22 03:10:10;;;;;;;1.63;0.22;;;7.70;99.90;;;;;;20417092;28;20143;-43
2021/10/22 03:20:12;;;;;;;4.22;0.30;;;7.80;99.90;;;;;;20419978;28;20515;-43
2021/10/22 03:30:13;;;;;;;1.27;0.32;;;8.20;99.90;;;;;;20401373;28;20054;-43
2021/10/22 03:40:14;;;;;;;2.50;0.35;;;8.30;99.90;;;;;;20422505;29;20402;-43
2021/10/22 03:50:17;;;;;;;5.85;1.00;;;8.30;99.90;;;;;;20412650;28;20062;-43
2021/10/22 04:00:18;;;;;;;2.70;0.30;;;8.70;99.90;;;;;;20413906;28;20524;-43
2021/10/22 04:10:20;;;;;;;0.93;0.17;;;8.90;99.90;;;;;;20422901;28;20055;-43
2021/10/22 04:20:21;;;;;;;2.88;0.28;;;8.90;99.90;;;;;;20413386;28;20048;-43
2021/10/22 04:30:22;;;;;;;1.15;0.45;;;9.10;99.90;;;;;;20406204;28;20062;-43
2021/10/22 04:40:31;;;;;;;5.60;0.82;;;9.20;99.90;;;;;;20420355;28;20036;-43
2021/10/22 04:50:33;;;;;;;1.52;0.45;;;9.40;99.90;;;;;;20408399;28;20079;-43
2021/10/22 05:00:35;;;;;;;3.53;0.50;;;9.50;99.90;;;;;;20444547;28;20429;-43
2021/10/22 05:10:36;;;;;;;2.28;0.22;;;9.50;99.90;;;;;;20434997;28;20060;-43
2021/10/22 05:20:38;;;;;;;1.95;0.40;;;9.50;99.90;;;;;;20419394;28;20039;-43
2021/10/22 05:30:39;;;;;;;2.78;0.40;;;9.60;99.90;;;;;;20428803;28;20042;-43
2021/10/22 05:40:40;;;;;;;1.75;0.25;;;9.60;99.90;;;;;;20404497;28;20055;-43
2021/10/22 05:50:42;;;;;;;2.83;0.90;;;9.40;99.90;;;;;;20404504;28;20066;-43
2021/10/22 06:00:43;;;;;;;0.80;0.60;;;9.50;99.90;;;;;;20432311;28;20050;-43
2021/10/22 06:10:46;;;;;;;1.48;0.20;;;9.50;99.90;;;;;;20421342;28;20519;-43
2021/10/22 06:21:00;;;;;;;0.88;0.20;;;9.40;99.90;;;;;;20420640;28;20497;-43
2021/10/22 06:31:01;;;;;;;2.35;0.20;;;9.40;99.90;;;;;;20411820;28;20070;-43
2021/10/22 06:41:04;;;;;;;2.67;0.73;;;9.50;99.90;;;;;;20409240;28;20051;-43
2021/10/22 06:51:07;;;;;;;1.65;0.77;;;9.40;99.90;;;;;;20424525;28;20067;-43
2021/10/22 07:01:08;;;;;;;3.13;0.57;;;9.60;99.90;;;;;;20404458;28;20529;-43
2021/10/22 07:11:09;;;;;;;2.10;0.50;;;9.60;99.90;;;;;;20413922;28;20073;-43
2021/10/22 07:21:13;;;;;;;1.33;0.30;;;9.70;99.90;;;;;;20403382;28;20070;-43
2021/10/22 07:31:18;;;;;;;3.83;0.43;;;9.90;99.90;;;;;;20378282;28;20051;-43
2021/10/22 07:41:19;;;;;;;2.55;0.30;;;10.10;99.90;;;;;;20412205;28;20058;-43
2021/10/22 07:51:20;;;;;;;3.97;0.25;;;10.20;99.90;;;;;;20393129;28;20039;-43
2021/10/22 08:01:21;;;;;;;1.63;0.52;;;10.50;99.90;;;;;;20404122;28;20047;-43
2021/10/22 08:11:22;;;;;;;3.13;0.50;;;10.60;99.90;;;;;;20394488;28;20569;-43
2021/10/22 08:31:40;;;;;;;8.82;1.63;;;11.00;99.90;;;;;;20376570;28;20039;-43
2021/10/22 08:41:41;;;;;;;2.17;0.60;;;11.10;99.90;;;;;;20389164;28;20050;-43
2021/10/22 08:51:43;;;;;;;5.40;0.60;;;11.20;99.90;;;;;;20413089;28;20058;-43
2021/10/22 09:02:15;;;;;;;7.22;0.90;;;11.30;99.90;;;;;;20422859;28;20047;-42
2021/10/22 09:12:17;;;;;;;5.32;0.77;;;11.00;99.90;;;;;;20406494;28;20055;-43
2021/10/22 09:22:29;;;;;;;1.52;0.82;;;11.00;99.90;;;;;;20403892;28;20040;-43
2021/10/22 09:32:31;;;;;;;2.42;1.13;;;10.90;99.90;;;;;;20415251;28;20098;-43
2021/10/22 09:42:33;;;;;;;1.67;0.50;;;10.80;99.90;;;;;;20436817;28;20035;-43
2021/10/22 09:52:35;;;;;;;1.98;0.30;;;10.90;99.90;;;;;;20420104;28;20060;-43
2021/10/22 10:02:38;;;;;;;5.32;0.88;;;11.20;99.90;;;;;;20419305;28;20043;-43
2021/10/22 10:12:40;;;;;;;4.15;0.75;;;11.40;99.90;;;;;;20414138;28;20070;-43
2021/10/22 10:22:44;;;;;;;5.15;0.57;;;11.50;99.90;;;;;;20358956;28;20039;-43
2021/10/22 10:32:45;;;;;;;1.63;0.50;;;11.70;99.90;;;;;;20409600;28;20051;-43
2021/10/22 10:42:58;;;;;;;0.95;0.35;;;11.90;99.90;;;;;;20421112;28;20128;-43
2021/10/22 10:53:00;;;;;;;10.00;1.25;;;12.10;99.90;;;;;;20418643;28;20053;-43
2021/10/22 11:03:04;;;;;;;2.55;0.50;;;12.10;99.90;;;;;;20416925;28;20038;-43
2021/10/22 11:13:15;;;;;;;3.25;0.50;;;12.20;99.90;;;;;;20407182;28;20059;-43
2021/10/22 11:23:16;;;;;;;2.05;0.47;;;12.80;99.90;;;;;;20367395;28;20486;-43
2021/10/22 11:33:17;;;;;;;1.73;0.57;;;13.60;99.90;;;;;;20422503;28;20039;-43
2021/10/22 11:43:20;;;;;;;5.78;0.93;;;14.70;99.90;;;;;;20425014;28;20039;-43
2021/10/22 11:53:25;;;;;;;4.68;0.73;;;14.70;99.90;;;;;;20407982;28;20064;-43
2021/10/22 12:03:29;;;;;;;4.07;0.40;;;14.00;99.90;;;;;;20404140;28;20442;-43
2021/10/22 12:13:33;;;;;;;5.00;0.60;;;13.90;99.90;;;;;;20403826;28;20059;-43
2021/10/22 12:23:37;;;;;;;3.03;0.80;;;13.60;99.90;;;;;;20370986;28;20046;-44
2021/10/22 12:33:38;;;;;;;1.40;0.40;;;13.00;99.90;;;;;;20390222;28;20048;-43
2021/10/22 12:43:39;;;;;;;5.10;0.70;;;12.50;99.90;;;;;;20402420;29;20071;-43
2021/10/22 12:53:43;;;;;;;1.17;0.25;;;12.50;99.90;;;;;;20413587;28;20606;-42
2021/10/22 13:03:48;;;;;;;2.58;0.47;;;12.20;99.90;;;;;;20394640;28;20109;-43
2021/10/22 13:14:11;;;;;;;2.22;0.68;;;12.90;99.90;;;;;;20427063;28;20506;-43
2021/10/22 13:24:13;;;;;;;1.35;0.43;;;12.70;99.90;;;;;;20401985;28;20066;-43
2021/10/22 13:34:14;;;;;;;0.88;0.13;;;12.30;99.90;;;;;;20402051;28;20504;-43
2021/10/22 13:44:15;;;;;;;0.70;0.15;;;11.30;99.90;;;;;;20412100;29;20040;-43
2021/10/22 13:54:16;;;;;;;2.53;0.85;;;10.80;99.90;;;;;;20403054;29;20418;-43
2021/10/22 14:04:17;;;;;;;2.30;0.28;;;10.90;99.90;;;;;;20398193;28;20066;-43
2021/10/22 14:34:42;;;;;;;2.13;0.70;;;10.40;99.90;;;;;;20357588;29;20052;-43
2021/10/22 14:44:43;;;;;;;2.97;0.35;;;10.40;99.90;;;;;;20393051;28;20054;-43
2021/10/22 14:54:57;;;;;;;4.38;0.45;;;10.60;99.90;;;;;;20405947;28;20066;-43
2021/10/22 15:04:58;;;;;;;2.92;0.43;;;10.60;99.90;;;;;;20405060;28;20039;-43
2021/10/22 15:15:01;;;;;;;0.03;0.03;;;10.60;99.90;;;;;;20397543;29;20063;-43
2021/10/22 15:25:03;;;;;;;5.60;0.32;;;10.60;99.90;;;;;;20429591;28;20055;-43
2021/10/22 15:35:05;;;;;;;0.75;0.20;;;10.60;99.90;;;;;;20417494;29;20051;-43
2021/10/22 15:45:08;;;;;;;0.43;0.20;;;10.60;99.90;;;;;;20428871;28;20035;-43
2021/10/22 15:55:10;;;;;;;0.75;0.20;;;10.40;99.90;;;;;;20432211;29;20043;-43
2021/10/22 16:05:12;;;;;;;2.08;0.50;;;10.30;99.90;;;;;;20391752;28;20384;-43
2021/10/22 16:25:20;;;;;;;5.13;0.70;;;10.00;99.90;;;;;;20405290;28;20043;-43
2021/10/22 16:35:42;;;;;;;1.40;0.52;;;9.80;99.90;;;;;;20399542;28;20066;-43
2021/10/22 16:45:47;;;;;;;4.15;0.93;;;9.70;99.90;;;;;;20408103;28;20058;-43
2021/10/22 16:55:48;;;;;;;2.55;0.43;;;9.50;99.90;;;;;;20390547;28;20054;-44
2021/10/22 17:05:49;;;;;;;3.22;0.73;;;9.30;99.90;;;;;;20388217;28;20051;-43
2021/10/22 17:15:50;;;;;;;1.80;0.75;;;9.30;99.90;;;;;;20377982;28;20047;-43
2021/10/22 17:25:51;;;;;;;3.63;0.80;;;9.40;99.90;;;;;;20380515;28;20044;-43
2021/10/22 17:35:52;;;;;;;2.65;0.65;;;9.20;99.90;;;;;;20387746;28;20371;-43
2021/10/22 17:45:53;;;;;;;7.75;1.77;;;9.10;99.90;;;;;;20406619;28;20024;-43
2021/10/22 17:55:55;;;;;;;5.50;2.58;;;8.90;99.90;;;;;;20406773;28;20498;-43
2021/10/22 18:05:56;;;;;;;5.32;1.50;;;8.70;99.90;;;;;;20424197;28;20035;-43
2021/10/22 18:15:57;;;;;;;4.05;1.90;;;8.50;99.90;;;;;;20422747;28;20056;-42
2021/10/22 18:25:59;;;;;;;3.40;1.58;;;8.40;99.90;;;;;;20415809;28;20038;-42
2021/10/22 18:36:01;;;;;;;3.55;1.50;;;8.30;99.90;;;;;;20440900;28;20039;-42
2021/10/22 18:46:04;;;;;;;4.15;1.58;;;8.30;99.90;;;;;;20419683;28;20039;-42
2021/10/22 18:56:05;;;;;;;8.18;1.75;;;8.20;99.90;;;;;;20422735;28;20066;-42
2021/10/22 19:06:16;;;;;;;6.18;1.83;;;8.00;99.90;;;;;;20432917;28;20055;-42
2021/10/22 19:16:17;;;;;;;7.32;1.73;;;7.90;99.90;;;;;;20399521;28;20055;-42
2021/10/22 19:26:20;;;;;;;4.32;1.42;;;8.00;99.90;;;;;;20399920;28;20517;-42
2021/10/22 19:36:23;;;;;;;5.88;1.60;;;8.00;99.90;;;;;;20394433;28;20616;-42
2021/10/22 19:46:24;;;;;;;3.95;1.38;;;8.10;99.90;;;;;;20410312;28;20437;-42
2021/10/22 19:56:29;;;;;;;5.70;1.10;;;8.20;99.90;;;;;;20425793;28;20060;-42
2021/10/22 20:06:30;;;;;;;4.60;0.98;;;8.10;99.90;;;;;;20429029;28;20051;-42
2021/10/22 20:16:32;;;;;;;5.22;1.00;;;7.90;99.90;;;;;;20419985;28;20047;-42
2021/10/22 20:26:33;;;;;;;3.58;1.45;;;7.90;99.90;;;;;;20421120;28;20070;-42
2021/10/22 20:36:36;;;;;;;4.13;1.05;;;7.90;99.90;;;;;;20413186;28;20047;-42
2021/10/22 20:46:39;;;;;;;9.85;1.55;;;7.90;99.90;;;;;;20422141;28;20059;-42
2021/10/22 20:57:00;;;;;;;1.98;0.50;;;7.80;99.90;;;;;;20403029;28;20167;-42
2021/10/22 21:07:01;;;;;;;2.92;0.70;;;7.60;99.90;;;;;;20394878;28;20079;-42
2021/10/22 21:17:04;;;;;;;4.95;0.77;;;7.40;99.90;;;;;;20405320;28;20058;-42
2021/10/22 21:27:05;;;;;;;1.58;0.65;;;7.20;99.90;;;;;;20404039;28;20056;-42
2021/10/22 21:37:07;;;;;;;1.17;0.57;;;7.10;99.90;;;;;;20419347;28;20058;-42
2021/10/22 21:47:08;;;;;;;1.00;0.40;;;7.00;99.90;;;;;;20430372;28;20062;-42
2021/10/22 21:57:09;;;;;;;1.60;0.57;;;6.90;99.90;;;;;;20415728;28;20236;-42
2021/10/22 22:07:10;;;;;;;2.63;0.70;;;6.80;99.90;;;;;;20426375;28;20576;-42
2021/10/22 22:17:14;;;;;;;2.40;0.65;;;6.70;99.90;;;;;;20436587;28;20117;-42
2021/10/22 22:27:15;;;;;;;3.13;0.30;;;6.60;99.90;;;;;;20423668;28;20044;-42
2021/10/22 22:37:17;;;;;;;2.72;0.80;;;6.40;99.90;;;;;;20418940;28;20055;-42
2021/10/22 22:47:18;;;;;;;1.92;0.43;;;6.20;99.90;;;;;;20413072;28;20063;-42
2021/10/22 22:57:19;;;;;;;2.83;0.65;;;6.20;99.90;;;;;;20425168;28;20036;-42
2021/10/22 23:07:20;;;;;;;1.70;0.60;;;6.20;99.90;;;;;;20422955;28;20753;-42
2021/10/22 23:17:21;;;;;;;5.97;0.75;;;6.20;99.90;;;;;;20417509;28;20047;-42
2021/10/22 23:27:22;;;;;;;2.90;0.32;;;6.10;99.90;;;;;;20423307;28;20036;-42
2021/10/22 23:37:23;;;;;;;1.27;0.57;;;6.00;99.90;;;;;;20418138;28;21168;-42
2021/10/22 23:47:24;;;;;;;0.90;0.50;;;6.10;99.90;;;;;;20398243;28;20421;-42
2021/10/22 23:57:25;;;;;;;0.70;0.40;;;6.20;99.90;;;;;;20425963;28;20419;-42
